Decoded Metar for KMCX ( in ) (IATA:) | Meteo·Mobile Aviation Weather
aviador You're here:

KMCX Decoded Metar

in
Report Time2020-02-18 21:55:00
UTC Time2020-02-18 22:04:06
Flight Rules vfr VFR
Wind300° at 12 kt
W.Decomp.*RWY 36: 6.0 kt HW 10.4 kt LCW
Visibility9999 m
Phenomena:N/A
Clouds:Scattered 019 Hf
Expected CloudBase > 1,200 ft AGL from Temp-Dew spread
CeilingNone
Temp01°C
Dew Point-2°C (81% RH)
AAT-5.6°C
QNH1023 hPa
Raw Report
METAR KMCX 182155Z AUTO 30012KT 10SM SCT019 01/M02 A3020 RMK AO2 T00121025=

Extra information for KMCX:More info

Social comments